Time;durP1;ratioP1;P1;durP2;ratioP2;P2;SDS_P1;SDS_P2;PMS_P1;PMS_P2;Temp;Humidity;BMP_temperature;BMP_pressure;BME280_temperature;BME280_humidity;BME280_pressure;Samples;Min_cycle;Max_cycle;Signal;HPM_P1;HPM_P2
2023/01/26 00:02:01;;;;;;;17.42;10.52;;;;;;;0.08;65.37;100690.28;10415636;28;20071;-64
2023/01/26 00:07:02;;;;;;;15.82;10.25;;;;;;;0.22;65.32;100691.94;10418057;28;20489;-65
2023/01/26 00:12:04;;;;;;;16.67;10.30;;;;;;;0.34;65.34;100688.44;10415648;28;20060;-64
2023/01/26 00:17:06;;;;;;;15.25;9.65;;;;;;;0.34;65.04;100691.03;10419641;28;20041;-64
2023/01/26 00:22:08;;;;;;;16.45;9.32;;;;;;;0.35;65.25;100687.56;10414721;28;20048;-64
2023/01/26 00:27:09;;;;;;;17.55;11.25;;;;;;;0.24;65.45;100676.50;10414754;28;20057;-64
2023/01/26 00:32:11;;;;;;;17.55;10.55;;;;;;;0.18;65.30;100674.81;10414733;28;20045;-64
2023/01/26 00:37:12;;;;;;;16.92;10.90;;;;;;;0.19;65.51;100681.66;10416288;28;20041;-65
2023/01/26 00:42:14;;;;;;;12.80;8.75;;;;;;;0.03;65.22;100667.19;10415168;28;20044;-64
2023/01/26 00:47:17;;;;;;;13.57;8.43;;;;;;;-0.08;65.33;100678.38;10415956;28;20054;-64
2023/01/26 00:52:18;;;;;;;14.85;9.43;;;;;;;0.07;64.97;100670.59;10415106;28;20492;-64
2023/01/26 00:57:20;;;;;;;17.38;9.32;;;;;;;0.10;64.88;100655.13;10413806;28;20045;-64
2023/01/26 01:02:22;;;;;;;19.55;10.43;;;;;;;0.13;64.60;100649.97;10412571;28;20049;-64
2023/01/26 01:07:23;;;;;;;15.93;10.05;;;;;;;0.15;64.77;100645.69;10412065;28;20520;-64
2023/01/26 01:12:26;;;;;;;18.13;10.13;;;;;;;0.15;64.47;100646.56;10415166;28;20044;-64
2023/01/26 01:17:27;;;;;;;17.90;10.60;;;;;;;0.12;64.33;100646.56;10421415;28;20045;-64
2023/01/26 01:22:29;;;;;;;16.67;10.88;;;;;;;0.07;64.34;100643.16;10427668;28;20106;-64
2023/01/26 01:27:31;;;;;;;15.60;9.55;;;;;;;-0.03;64.04;100641.53;10423444;28;20053;-64
2023/01/26 01:32:38;;;;;;;13.75;9.30;;;;;;;-0.13;64.20;100644.13;10421637;28;20661;-64
2023/01/26 01:37:40;;;;;;;14.02;9.40;;;;;;;-0.21;64.22;100644.19;10423315;28;20049;-64
2023/01/26 01:42:48;;;;;;;14.25;9.45;;;;;;;-0.18;64.35;100641.59;10428652;28;20088;-64
2023/01/26 01:47:51;;;;;;;13.77;8.93;;;;;;;-0.18;64.29;100644.16;10425034;28;20416;-64
2023/01/26 01:52:55;;;;;;;13.98;9.18;;;;;;;-0.01;64.00;100641.50;10424770;28;20041;-64
2023/01/26 01:58:01;;;;;;;13.85;9.82;;;;;;;0.01;63.88;100643.22;10422192;28;20346;-64
2023/01/26 02:03:18;;;;;;;13.82;9.38;;;;;;;0.01;64.01;100638.06;10423734;28;20865;-64
2023/01/26 02:08:24;;;;;;;15.85;10.43;;;;;;;-0.13;63.79;100632.16;10420363;28;20464;-64
2023/01/26 02:13:27;;;;;;;15.25;10.32;;;;;;;-0.19;64.33;100631.31;10421025;28;20279;-64
2023/01/26 02:18:29;;;;;;;14.70;9.82;;;;;;;-0.13;64.04;100619.28;10421789;28;20048;-64
2023/01/26 02:23:30;;;;;;;16.95;10.52;;;;;;;0.02;63.85;100613.19;10423475;28;20044;-64
2023/01/26 02:28:32;;;;;;;15.10;9.63;;;;;;;-0.01;63.87;100616.66;10419793;28;20408;-65
2023/01/26 02:33:34;;;;;;;18.75;10.95;;;;;;;0.01;63.93;100604.63;10419979;28;20081;-64
2023/01/26 02:38:40;;;;;;;19.67;11.63;;;;;;;0.04;63.73;100583.16;10415897;28;20048;-64
2023/01/26 02:43:41;;;;;;;17.33;11.63;;;;;;;-0.05;63.72;100590.97;10420551;28;20510;-64
2023/01/26 02:54:03;;;;;;;16.88;10.25;;;;;;;-0.06;63.17;100571.25;10418235;28;20060;-64
2023/01/26 02:59:05;;;;;;;16.63;10.05;;;;;;;-0.22;63.35;100570.50;10421547;28;20068;-64
2023/01/26 03:04:07;;;;;;;15.48;9.90;;;;;;;-0.21;63.39;100569.66;10422163;28;20809;-63
2023/01/26 03:09:08;;;;;;;13.45;9.00;;;;;;;-0.47;63.00;100567.19;10422719;28;20048;-64
2023/01/26 03:14:12;;;;;;;14.63;9.30;;;;;;;-0.45;63.01;100568.03;10423184;28;20519;-64
2023/01/26 03:29:56;;;;;;;18.02;11.02;;;;;;;-0.33;62.83;100557.69;10427180;28;20490;-64
2023/01/26 03:34:58;;;;;;;18.75;11.73;;;;;;;-0.36;62.60;100555.16;10423289;28;20144;-64
2023/01/26 04:01:26;;;;;;;18.75;11.48;;;;;;;-0.20;62.55;100539.63;10431566;28;20049;-64
2023/01/26 04:11:52;;;;;;;22.50;13.00;;;;;;;-0.23;62.25;100537.09;10417875;28;20063;-64
2023/01/26 04:22:14;;;;;;;18.98;11.90;;;;;;;-0.29;62.62;100535.41;10416878;28;20231;-64
2023/01/26 04:27:16;;;;;;;24.52;13.52;;;;;;;-0.25;62.24;100537.13;10416409;28;20048;-63
2023/01/26 04:32:18;;;;;;;22.98;12.75;;;;;;;-0.24;62.12;100532.81;10414545;28;20049;-64
2023/01/26 04:37:20;;;;;;;22.67;13.25;;;;;;;-0.32;62.37;100523.44;10419370;28;20354;-64
2023/01/26 04:42:23;;;;;;;23.02;12.52;;;;;;;-0.31;62.26;100519.13;10421503;28;20429;-64
2023/01/26 04:47:25;;;;;;;23.10;13.18;;;;;;;-0.23;62.22;100519.97;10415496;28;20060;-64
2023/01/26 04:52:29;;;;;;;22.42;12.77;;;;;;;-0.18;62.33;100520.78;10421128;28;20465;-63
2023/01/26 04:57:31;;;;;;;23.65;13.85;;;;;;;-0.15;62.04;100515.63;10421504;28;20044;-64
2023/01/26 05:02:35;;;;;;;25.17;13.60;;;;;;;-0.18;62.12;100517.34;10410935;28;20739;-63
2023/01/26 05:07:38;;;;;;;28.17;15.45;;;;;;;-0.09;61.88;100514.72;10422829;28;20049;-64
2023/01/26 05:12:41;;;;;;;28.35;15.40;;;;;;;-0.26;62.15;100517.41;10425011;28;20136;-63
2023/01/26 05:17:43;;;;;;;32.58;16.63;;;;;;;-0.15;62.14;100514.75;10421722;28;20553;-64
2023/01/26 05:22:45;;;;;;;29.88;16.42;;;;;;;-0.17;62.08;100507.06;10421160;28;20142;-63
2023/01/26 05:27:47;;;;;;;29.70;16.65;;;;;;;-0.34;62.37;100507.19;10424974;28;20055;-63
2023/01/26 05:32:49;;;;;;;31.92;16.75;;;;;;;-0.37;62.56;100508.91;10422564;28;20522;-64
2023/01/26 05:37:51;;;;;;;29.75;16.60;;;;;;;-0.35;62.58;100520.03;10421686;28;20045;-63
2023/01/26 05:42:53;;;;;;;32.97;16.55;;;;;;;-0.36;62.47;100518.31;10427225;28;20296;-63
2023/01/26 05:47:55;;;;;;;31.08;16.73;;;;;;;-0.38;62.78;100515.78;10428161;28;20053;-64
2023/01/26 05:52:59;;;;;;;30.15;16.65;;;;;;;-0.23;62.81;100501.13;10421444;28;20049;-64
2023/01/26 05:58:00;;;;;;;31.10;16.50;;;;;;;-0.08;62.38;100508.69;10418036;28;20064;-64
2023/01/26 06:03:02;;;;;;;33.15;17.15;;;;;;;-0.14;62.24;100508.75;10420666;28;20500;-65
2023/01/26 06:08:04;;;;;;;32.25;16.25;;;;;;;-0.35;62.38;100509.75;10422773;28;20045;-64
2023/01/26 06:13:06;;;;;;;32.35;16.48;;;;;;;-0.35;62.36;100508.03;10421461;28;20457;-64
2023/01/26 06:18:07;;;;;;;37.35;17.60;;;;;;;-0.33;62.56;100508.88;10420894;28;20072;-64
2023/01/26 06:23:10;;;;;;;37.30;17.88;;;;;;;-0.28;62.72;100515.69;10420149;28;20552;-64
2023/01/26 06:28:12;;;;;;;38.22;18.05;;;;;;;-0.15;62.43;100510.47;10418123;28;20049;-64
2023/01/26 06:33:14;;;;;;;38.53;17.83;;;;;;;-0.28;62.38;100523.41;10418952;28;20049;-64
2023/01/26 06:38:15;;;;;;;36.75;17.67;;;;;;;-0.26;62.57;100529.41;10417543;28;20052;-64
2023/01/26 06:43:17;;;;;;;38.88;19.88;;;;;;;-0.17;62.33;100537.91;10422920;28;20055;-64
2023/01/26 06:48:19;;;;;;;41.03;19.75;;;;;;;-0.23;62.23;100534.53;10421738;28;20504;-64
2023/01/26 06:53:29;;;;;;;40.92;19.52;;;;;;;-0.26;62.36;100532.81;10418649;28;20663;-64
2023/01/26 06:58:30;;;;;;;36.58;18.70;;;;;;;-0.19;62.22;100531.94;10418552;28;20490;-64
2023/01/26 07:03:32;;;;;;;41.53;19.25;;;;;;;-0.04;62.28;100534.38;10417915;28;20401;-64
2023/01/26 07:08:34;;;;;;;37.15;18.25;;;;;;;-0.09;61.99;100535.28;10418115;28;20064;-64
2023/01/26 07:13:35;;;;;;;35.33;17.20;;;;;;;-0.33;62.03;100547.41;10418447;28;20037;-64
2023/01/26 07:18:37;;;;;;;37.30;16.27;;;;;;;-0.51;61.93;100550.09;10419159;28;20390;-64
2023/01/26 07:23:39;;;;;;;35.22;16.90;;;;;;;-0.43;61.82;100561.19;10421867;28;20436;-65
2023/01/26 07:28:41;;;;;;;29.10;14.52;;;;;;;-0.60;61.57;100575.00;10418251;28;20484;-65
2023/01/26 07:33:43;;;;;;;33.40;17.08;;;;;;;-0.51;61.95;100583.50;10421368;28;20049;-65
2023/01/26 07:38:45;;;;;;;34.65;16.70;;;;;;;-0.42;61.92;100586.03;10397786;28;20500;-64
2023/01/26 07:43:49;;;;;;;39.20;16.75;;;;;;;-0.43;61.79;100581.75;10418944;28;20650;-65
2023/01/26 07:48:51;;;;;;;41.53;17.88;;;;;;;-0.29;61.61;100589.38;10430561;28;20090;-64
2023/01/26 07:53:53;;;;;;;31.73;15.63;;;;;;;-0.36;61.64;100591.16;10420488;28;20071;-65
2023/01/26 07:58:55;;;;;;;28.15;13.70;;;;;;;-0.59;61.44;100608.38;10426626;28;20053;-65
2023/01/26 08:03:58;;;;;;;28.40;13.45;;;;;;;-0.75;61.93;100606.72;10424318;28;20629;-64
2023/01/26 08:09:00;;;;;;;31.80;14.60;;;;;;;-0.54;61.23;100606.66;10425635;28;20080;-64
2023/01/26 08:14:01;;;;;;;32.35;14.98;;;;;;;-0.71;61.18;100615.25;10426451;28;20052;-64
2023/01/26 08:19:03;;;;;;;31.55;15.23;;;;;;;-0.98;61.01;100623.06;10427239;28;20508;-64
2023/01/26 08:24:05;;;;;;;31.33;16.58;;;;;;;-1.20;61.20;100617.94;10427213;28;20335;-63
2023/01/26 08:29:07;;;;;;;28.33;15.10;;;;;;;-1.29;61.17;100615.38;10426956;28;20092;-64
2023/01/26 08:34:08;;;;;;;26.52;14.02;;;;;;;-1.27;60.91;100612.84;10426577;28;20045;-64
2023/01/26 08:39:10;;;;;;;20.90;11.73;;;;;;;-1.34;60.14;100614.53;10424965;28;20045;-64
2023/01/26 08:44:12;;;;;;;21.50;12.25;;;;;;;-1.19;60.05;100624.78;10425781;28;20131;-63
2023/01/26 08:49:13;;;;;;;16.27;8.93;;;;;;;-1.09;59.57;100623.06;10426117;28;20095;-64
2023/01/26 08:54:15;;;;;;;17.98;9.65;;;;;;;-1.22;59.15;100621.38;10426487;28;20049;-64
2023/01/26 08:59:17;;;;;;;14.15;8.45;;;;;;;-1.06;59.13;100620.47;10418837;28;20493;-64
2023/01/26 09:04:18;;;;;;;17.02;9.50;;;;;;;-1.08;59.10;100616.22;10422270;28;20045;-64
2023/01/26 09:09:20;;;;;;;16.75;9.13;;;;;;;-0.59;58.66;100597.22;10423859;28;20060;-65
2023/01/26 09:14:22;;;;;;;14.60;9.18;;;;;;;-0.44;58.06;100604.88;10422516;28;20445;-64
2023/01/26 09:19:24;;;;;;;17.85;9.85;;;;;;;-0.24;57.93;100617.63;10423353;28;20072;-64
2023/01/26 09:24:26;;;;;;;16.52;10.63;;;;;;;-0.11;57.71;100598.72;10423446;28;20049;-64
2023/01/26 09:29:27;;;;;;;17.02;10.82;;;;;;;-0.37;58.01;100606.53;10424573;28;20045;-64
2023/01/26 09:34:29;;;;;;;17.70;10.63;;;;;;;-0.14;58.12;100615.00;10421588;28;20049;-64
2023/01/26 09:39:30;;;;;;;17.52;10.18;;;;;;;-0.08;57.81;100609.81;10430917;28;20416;-64
2023/01/26 09:44:51;;;;;;;17.70;10.27;;;;;;;0.20;57.07;100615.66;10430280;28;20057;-64
2023/01/26 09:50:17;;;;;;;16.10;9.68;;;;;;;0.27;56.67;100623.31;10431519;28;20316;-64
2023/01/26 09:55:21;;;;;;;17.00;10.40;;;;;;;0.17;57.02;100613.97;10430757;28;20068;-64
2023/01/26 10:00:42;;;;;;;16.80;9.93;;;;;;;-0.29;56.95;100614.25;10431338;28;20065;-64
2023/01/26 10:05:56;;;;;;;20.33;10.63;;;;;;;-0.37;58.52;100616.81;10431217;28;20060;-64
2023/01/26 10:11:04;;;;;;;21.13;11.38;;;;;;;-0.11;58.37;100616.72;10430391;28;20569;-64
2023/01/26 10:16:10;;;;;;;19.45;11.15;;;;;;;-0.19;58.41;100615.91;10425305;28;20055;-64
2023/01/26 10:21:13;;;;;;;23.45;12.18;;;;;;;-0.28;58.49;100605.66;10429833;28;20095;-65
2023/01/26 10:26:22;;;;;;;21.45;12.30;;;;;;;0.12;58.67;100601.97;10428942;28;20497;-64
2023/01/26 10:31:31;;;;;;;20.23;12.23;;;;;;;0.08;58.27;100600.28;10411650;28;20500;-64
2023/01/26 10:36:33;;;;;;;20.80;11.98;;;;;;;0.03;58.49;100608.06;10428899;28;20056;-64
2023/01/26 10:41:35;;;;;;;23.60;12.52;;;;;;;0.10;58.65;100596.84;10429769;28;20060;-64
2023/01/26 10:46:39;;;;;;;22.48;12.85;;;;;;;0.24;58.61;100596.78;10427714;28;20057;-64
2023/01/26 10:51:44;;;;;;;22.75;12.02;;;;;;;0.37;58.60;100588.94;10427426;28;20057;-63
2023/01/26 10:56:58;;;;;;;22.48;12.10;;;;;;;0.29;58.51;100582.13;10428235;28;20489;-64
2023/01/26 11:02:18;;;;;;;19.17;11.57;;;;;;;0.62;58.12;100574.13;10426802;28;20061;-64
2023/01/26 11:07:31;;;;;;;20.95;12.45;;;;;;;0.75;57.78;100570.56;10426604;28;20048;-64
2023/01/26 11:12:32;;;;;;;20.55;11.90;;;;;;;1.05;57.80;100559.97;10428866;28;20512;-64
2023/01/26 11:17:47;;;;;;;17.67;10.75;;;;;;;1.35;56.98;100551.00;10427802;28;20049;-63
2023/01/26 11:23:07;;;;;;;17.83;10.65;;;;;;;1.18;57.06;100546.06;10428946;28;20496;-64
2023/01/26 11:28:54;;;;;;;18.27;10.48;;;;;;;1.24;56.35;100540.81;10427751;28;20048;-64
2023/01/26 11:34:03;;;;;;;18.35;11.02;;;;;;;1.19;57.33;100534.91;10417051;28;20079;-64
2023/01/26 11:39:11;;;;;;;18.05;11.00;;;;;;;1.17;57.13;100516.03;10426370;28;20049;-64
2023/01/26 11:44:19;;;;;;;22.00;12.75;;;;;;;1.06;57.33;100515.28;10425160;28;20055;-64
2023/01/26 11:49:36;;;;;;;20.90;12.27;;;;;;;0.91;58.01;100515.47;10426216;28;20535;-64
2023/01/26 11:54:46;;;;;;;21.35;12.32;;;;;;;1.08;57.88;100500.66;10424321;28;20048;-64
2023/01/26 11:59:57;;;;;;;21.80;12.68;;;;;;;1.01;57.70;100496.47;10422615;28;20123;-64
2023/01/26 12:05:01;;;;;;;;;;;;;;;0.74;58.12;100494.22;10421862;28;20044;-65
2023/01/26 12:10:06;;;;;;;24.70;13.30;;;;;;;1.05;58.00;100482.69;10421286;28;19927;-64
2023/01/26 12:15:18;;;;;;;24.48;13.68;;;;;;;1.02;58.10;100485.28;10425196;28;20132;-64
2023/01/26 12:20:44;;;;;;;25.92;15.07;;;;;;;1.14;58.01;100476.53;10425355;28;20041;-64
2023/01/26 12:25:54;;;;;;;23.00;13.45;;;;;;;1.23;58.05;100476.44;10424875;28;20088;-65
2023/01/26 12:31:16;;;;;;;30.85;16.25;;;;;;;1.26;57.84;100461.78;10425289;28;20103;-64
2023/01/26 12:36:33;;;;;;;27.30;14.40;;;;;;;1.33;57.98;100449.69;10424216;28;20057;-64
2023/01/26 12:41:41;;;;;;;22.20;13.68;;;;;;;1.33;58.04;100447.97;10424755;28;20841;-64
2023/01/26 12:46:50;;;;;;;24.30;14.35;;;;;;;1.33;58.45;100432.50;10423356;28;20147;-64
2023/01/26 12:52:06;;;;;;;26.77;14.93;;;;;;;1.35;58.81;100422.16;10407159;28;20135;-64
2023/01/26 12:57:15;;;;;;;25.08;14.40;;;;;;;1.48;59.34;100410.81;10425090;28;20055;-64
2023/01/26 13:02:27;;;;;;;25.77;15.25;;;;;;;1.52;59.29;100425.34;10424717;28;20421;-65
2023/01/26 13:07:39;;;;;;;26.17;14.52;;;;;;;1.59;59.18;100413.19;10424746;28;20056;-64
2023/01/26 13:12:49;;;;;;;27.10;15.55;;;;;;;1.59;59.46;100414.06;10427316;28;20493;-64
2023/01/26 13:17:52;;;;;;;32.05;15.77;;;;;;;1.65;59.37;100410.53;10432228;28;20060;-64
2023/01/26 13:22:55;;;;;;;25.23;15.00;;;;;;;1.71;59.28;100408.69;10431823;28;20051;-64
2023/01/26 13:28:02;;;;;;;29.33;15.52;;;;;;;1.74;59.31;100403.50;10430641;28;20059;-64
2023/01/26 13:33:24;;;;;;;29.35;15.90;;;;;;;1.81;59.34;100397.34;10432361;28;20049;-64
2023/01/26 13:38:42;;;;;;;29.17;16.85;;;;;;;1.74;59.51;100403.50;10430993;28;20190;-65
2023/01/26 13:44:09;;;;;;;27.80;15.20;;;;;;;1.66;59.82;100407.94;10430374;28;20140;-64
2023/01/26 13:49:39;;;;;;;35.38;20.73;;;;;;;1.62;59.67;100410.59;10427902;28;20156;-64
2023/01/26 13:54:42;;;;;;;37.25;23.45;;;;;;;1.64;59.75;100421.72;10429707;28;20057;-64
2023/01/26 13:59:59;;;;;;;30.40;17.08;;;;;;;1.50;60.02;100418.50;10430789;28;20220;-63
2023/01/26 14:05:02;;;;;;;33.50;18.33;;;;;;;1.30;60.64;100419.66;10427029;28;20144;-64
2023/01/26 14:10:05;;;;;;;28.08;16.52;;;;;;;1.29;61.03;100433.41;10428548;28;20493;-64
2023/01/26 14:15:22;;;;;;;34.67;20.65;;;;;;;1.29;61.26;100432.56;10429911;28;20056;-64
2023/01/26 14:20:34;;;;;;;32.40;19.05;;;;;;;1.48;61.19;100430.56;10413539;28;20481;-64
2023/01/26 14:25:47;;;;;;;37.72;20.70;;;;;;;1.61;60.76;100427.78;10426264;28;20045;-65
2023/01/26 14:31:00;;;;;;;36.58;21.25;;;;;;;1.54;61.03;100430.47;10420473;28;20630;-64
2023/01/26 14:36:03;;;;;;;35.08;20.20;;;;;;;1.44;61.44;100437.50;10418715;28;20045;-64
2023/01/26 14:41:32;;;;;;;40.50;20.92;;;;;;;1.55;61.29;100438.19;10424544;28;20508;-65
2023/01/26 14:46:37;;;;;;;38.45;20.60;;;;;;;1.50;61.62;100440.00;10409162;28;20060;-64
2023/01/26 14:51:43;;;;;;;37.63;21.17;;;;;;;1.46;61.88;100427.16;10424613;28;20053;-65
2023/01/26 14:56:47;;;;;;;38.75;21.42;;;;;;;1.50;62.04;100428.81;10429501;28;20049;-64
2023/01/26 15:01:49;;;;;;;39.15;21.83;;;;;;;1.50;62.30;100434.84;10414325;28;20049;-65
2023/01/26 15:06:51;;;;;;;39.08;21.42;;;;;;;1.61;62.16;100439.81;10427415;28;20140;-64
2023/01/26 15:12:15;;;;;;;48.72;26.58;;;;;;;1.56;62.54;100444.19;10424044;28;20057;-65
2023/01/26 15:17:36;;;;;;;49.15;28.02;;;;;;;1.56;62.92;100446.75;10421173;28;20049;-64
2023/01/26 15:22:37;;;;;;;43.15;23.35;;;;;;;1.58;62.73;100445.03;10421726;28;20515;-64
2023/01/26 15:27:39;;;;;;;46.42;24.40;;;;;;;1.60;62.98;100445.84;10424315;28;20512;-63
2023/01/26 15:32:41;;;;;;;43.53;22.15;;;;;;;1.51;63.28;100451.13;10418053;28;20319;-64
2023/01/26 15:37:42;;;;;;;41.88;21.08;;;;;;;1.44;63.40;100447.81;10421716;28;20517;-64
2023/01/26 15:42:44;;;;;;;43.00;20.70;;;;;;;1.45;63.43;100453.78;10418701;28;20060;-64
2023/01/26 15:47:46;;;;;;;47.53;23.10;;;;;;;1.43;63.64;100451.25;10423260;28;20063;-64
2023/01/26 15:52:47;;;;;;;43.53;22.02;;;;;;;1.39;63.83;100454.75;10421100;28;20048;-64
2023/01/26 15:57:49;;;;;;;44.20;21.70;;;;;;;1.38;63.83;100456.47;10422101;28;20063;-64
2023/01/26 16:02:51;;;;;;;41.67;21.48;;;;;;;1.32;64.02;100455.69;10410796;28;20053;-65
2023/01/26 16:07:52;;;;;;;41.42;21.20;;;;;;;1.37;64.01;100456.50;10421933;28;20509;-64
2023/01/26 16:12:54;;;;;;;48.10;22.08;;;;;;;1.40;63.74;100450.44;10417306;28;20048;-65
2023/01/26 16:17:55;;;;;;;46.70;23.58;;;;;;;1.42;63.74;100446.13;10421568;28;20053;-64
2023/01/26 16:22:58;;;;;;;45.00;22.13;;;;;;;1.47;63.72;100445.19;10418067;28;20496;-64
2023/01/26 16:28:02;;;;;;;50.60;23.77;;;;;;;1.47;63.63;100445.19;10422998;28;20087;-64
2023/01/26 16:33:03;;;;;;;52.78;24.38;;;;;;;1.38;63.84;100450.44;10421339;28;20040;-64
2023/01/26 16:38:11;;;;;;;49.50;23.85;;;;;;;1.30;64.18;100450.56;10421802;28;20044;-64
2023/01/26 16:43:33;;;;;;;55.58;24.15;;;;;;;1.13;64.75;100449.97;10421413;28;20497;-64
2023/01/26 16:48:35;;;;;;;55.95;24.58;;;;;;;1.16;64.76;100455.06;10422829;28;20049;-64
2023/01/26 16:53:37;;;;;;;63.15;25.30;;;;;;;1.12;64.79;100458.53;10413523;28;20300;-64
2023/01/26 16:58:39;;;;;;;56.65;25.00;;;;;;;1.02;65.11;100451.81;10421802;28;20476;-64
2023/01/26 17:03:40;;;;;;;53.47;23.50;;;;;;;0.98;65.26;100452.72;10421313;28;20053;-64
2023/01/26 17:08:42;;;;;;;62.85;25.08;;;;;;;0.98;65.52;100446.72;10423020;28;20052;-64
2023/01/26 17:13:45;;;;;;;63.85;24.98;;;;;;;0.88;65.69;100458.00;10422930;28;20385;-63
2023/01/26 17:18:48;;;;;;;48.30;22.90;;;;;;;0.86;66.20;100465.75;10422975;28;20420;-64
2023/01/26 17:23:51;;;;;;;50.28;22.33;;;;;;;0.85;66.32;100453.72;10420503;28;20037;-63
2023/01/26 17:28:54;;;;;;;55.22;23.33;;;;;;;0.88;66.11;100448.56;10419428;28;20052;-64
2023/01/26 17:33:56;;;;;;;50.75;22.52;;;;;;;0.83;66.26;100445.19;10409808;28;20528;-64
2023/01/26 17:38:58;;;;;;;44.95;20.50;;;;;;;0.85;66.37;100437.47;10414328;28;20060;-64
2023/01/26 17:43:59;;;;;;;49.17;21.92;;;;;;;0.90;66.41;100441.66;10415146;28;20966;-64
2023/01/26 17:49:01;;;;;;;45.95;21.15;;;;;;;0.86;66.40;100446.88;10418071;28;20061;-64
2023/01/26 17:54:03;;;;;;;38.95;19.25;;;;;;;0.96;66.38;100445.88;10420943;28;20163;-65
2023/01/26 17:59:04;;;;;;;38.50;18.15;;;;;;;1.03;66.04;100447.53;10427117;28;20052;-64
2023/01/26 18:04:06;;;;;;;33.78;18.80;;;;;;;0.96;66.24;100451.88;10428123;28;20493;-64
2023/01/26 18:09:08;;;;;;;37.58;18.63;;;;;;;0.98;66.51;100452.72;10428405;28;20401;-64
2023/01/26 18:14:09;;;;;;;40.30;19.30;;;;;;;1.02;66.21;100450.94;10427486;28;20308;-64
2023/01/26 18:19:11;;;;;;;36.67;19.00;;;;;;;1.03;66.34;100453.53;10427530;28;20044;-64
2023/01/26 18:24:13;;;;;;;34.28;17.40;;;;;;;1.04;66.48;100452.66;10418512;28;20049;-64
2023/01/26 18:29:15;;;;;;;37.20;17.33;;;;;;;1.07;66.29;100460.34;10428210;28;20327;-65
2023/01/26 18:34:17;;;;;;;32.33;16.55;;;;;;;1.18;66.08;100450.72;10426568;28;20481;-64
2023/01/26 18:39:19;;;;;;;35.20;16.92;;;;;;;1.20;66.26;100450.72;10426500;28;20417;-64
2023/01/26 18:44:21;;;;;;;30.30;15.40;;;;;;;1.37;66.07;100459.06;10425775;28;20057;-64
2023/01/26 18:49:23;;;;;;;29.30;14.57;;;;;;;1.46;65.81;100455.50;10427635;28;20052;-64
2023/01/26 18:54:25;;;;;;;28.75;14.88;;;;;;;1.49;65.79;100458.03;10424916;28;20048;-64
2023/01/26 18:59:26;;;;;;;27.75;14.63;;;;;;;1.52;65.82;100455.41;10423494;28;20045;-64
2023/01/26 19:04:29;;;;;;;22.30;12.95;;;;;;;1.53;65.66;100452.81;10423151;28;20485;-64
2023/01/26 19:09:33;;;;;;;22.50;12.40;;;;;;;1.53;65.51;100454.53;10425882;28;20209;-64
2023/01/26 19:14:35;;;;;;;25.88;13.82;;;;;;;1.53;65.46;100457.09;10422651;28;20855;-64
2023/01/26 19:19:38;;;;;;;26.45;14.50;;;;;;;1.52;65.69;100451.13;10418832;28;20146;-64
2023/01/26 19:24:41;;;;;;;25.75;13.27;;;;;;;1.62;65.58;100451.84;10421152;28;20072;-64
2023/01/26 19:29:43;;;;;;;23.63;13.77;;;;;;;1.69;65.49;100453.41;10421740;28;20052;-64
2023/01/26 19:34:45;;;;;;;24.70;13.60;;;;;;;1.67;65.33;100443.13;10412860;28;20047;-64
2023/01/26 19:39:46;;;;;;;22.92;13.95;;;;;;;1.68;65.61;100444.84;10423724;28;20490;-64
2023/01/26 19:44:48;;;;;;;23.90;12.18;;;;;;;1.71;65.32;100449.09;10397629;28;20049;-64
2023/01/26 19:49:49;;;;;;;23.25;12.80;;;;;;;1.75;65.41;100453.31;10420962;28;20923;-64
2023/01/26 19:54:51;;;;;;;20.50;12.25;;;;;;;1.75;65.33;100448.16;10417206;28;20055;-64
2023/01/26 19:59:53;;;;;;;23.45;13.52;;;;;;;1.76;65.23;100445.59;10417828;28;20051;-64
2023/01/26 20:04:55;;;;;;;22.42;13.90;;;;;;;1.79;65.35;100442.09;10420776;28;20045;-65
2023/01/26 20:09:56;;;;;;;25.25;14.35;;;;;;;1.78;65.26;100440.41;10417243;28;20049;-65
2023/01/26 20:14:58;;;;;;;28.75;15.00;;;;;;;1.72;65.46;100432.75;10418095;28;20103;-64
2023/01/26 20:20:01;;;;;;;22.25;13.70;;;;;;;1.67;65.39;100439.69;10425064;28;20053;-64
2023/01/26 20:25:05;;;;;;;31.15;17.52;;;;;;;1.70;65.54;100437.09;10425298;28;20092;-64
2023/01/26 20:30:09;;;;;;;32.47;18.45;;;;;;;1.73;65.56;100442.19;10424314;28;20053;-64
2023/01/26 20:35:12;;;;;;;26.33;15.85;;;;;;;1.77;65.72;100438.69;10420471;28;20487;-64
2023/01/26 20:40:14;;;;;;;23.95;13.50;;;;;;;1.80;65.62;100431.78;10418353;28;20045;-65
2023/01/26 20:45:16;;;;;;;24.83;15.23;;;;;;;1.78;65.54;100430.09;10423673;28;20056;-64
2023/01/26 20:50:18;;;;;;;19.95;13.43;;;;;;;1.83;65.49;100431.69;10425108;28;20052;-64
2023/01/26 20:55:20;;;;;;;22.08;13.80;;;;;;;1.92;65.45;100431.56;10420166;28;20232;-64
2023/01/26 21:00:21;;;;;;;23.45;13.10;;;;;;;1.93;65.26;100427.25;10419755;28;20559;-64
2023/01/26 21:05:23;;;;;;;21.92;12.38;;;;;;;1.93;65.44;100422.94;10420790;28;20049;-63
2023/01/26 21:10:25;;;;;;;25.08;13.63;;;;;;;1.96;65.42;100419.47;10420833;28;20053;-65
2023/01/26 21:15:26;;;;;;;21.63;13.02;;;;;;;1.89;65.38;100412.72;10419494;28;20049;-64
2023/01/26 21:20:28;;;;;;;20.35;12.07;;;;;;;1.88;65.65;100411.88;10422998;28;20064;-65
2023/01/26 21:25:30;;;;;;;22.88;12.88;;;;;;;1.92;65.63;100403.19;10425028;28;20429;-64
2023/01/26 21:30:32;;;;;;;20.17;11.88;;;;;;;1.94;65.48;100395.41;10423587;28;20051;-64
2023/01/26 21:35:34;;;;;;;21.38;11.95;;;;;;;1.87;65.67;100399.00;10431852;28;20262;-64
2023/01/26 21:40:36;;;;;;;17.42;11.05;;;;;;;1.94;65.83;100390.25;10432653;28;20143;-65
2023/01/26 21:45:53;;;;;;;19.58;12.18;;;;;;;2.05;65.57;100396.09;10430893;28;20103;-64
2023/01/26 21:56:19;;;;;;;21.00;13.05;;;;;;;2.02;65.57;100384.09;10414512;28;20041;-64
2023/01/26 22:01:21;;;;;;;19.80;12.07;;;;;;;2.05;65.43;100378.03;10417567;28;20060;-64
2023/01/26 22:06:23;;;;;;;16.77;10.85;;;;;;;2.07;65.49;100381.44;10425971;28;20045;-64
2023/01/26 22:11:26;;;;;;;19.08;11.05;;;;;;;1.99;65.67;100378.16;10429696;28;20404;-64
2023/01/26 22:16:27;;;;;;;16.85;10.35;;;;;;;1.95;65.74;100377.34;10423888;28;20068;-64
2023/01/26 22:21:30;;;;;;;14.32;9.43;;;;;;;1.97;65.87;100377.31;10420923;28;20544;-64
2023/01/26 22:26:32;;;;;;;16.73;10.07;;;;;;;1.85;66.01;100383.53;10423257;28;20515;-64
2023/01/26 22:31:33;;;;;;;16.98;10.25;;;;;;;1.84;66.31;100374.09;10422768;28;20180;-64
2023/01/26 22:36:35;;;;;;;20.30;10.68;;;;;;;1.89;66.17;100371.47;10416251;28;20413;-64
2023/01/26 22:41:37;;;;;;;22.00;11.60;;;;;;;2.09;65.80;100388.25;10415431;28;20048;-64
2023/01/26 22:46:38;;;;;;;15.18;10.10;;;;;;;2.13;65.68;100369.25;10419891;28;20485;-64
2023/01/26 22:51:40;;;;;;;20.98;11.27;;;;;;;2.12;65.74;100371.88;10421565;28;20045;-65
2023/01/26 22:56:42;;;;;;;20.10;11.77;;;;;;;2.15;65.74;100367.50;10426808;28;20535;-64
2023/01/26 23:01:43;;;;;;;20.98;12.02;;;;;;;2.16;65.78;100364.06;10417968;28;20053;-65
2023/01/26 23:06:45;;;;;;;19.85;11.55;;;;;;;2.15;65.88;100371.84;10419815;28;20195;-64
2023/01/26 23:11:47;;;;;;;19.67;11.52;;;;;;;2.15;65.98;100371.84;10417874;28;20048;-63
2023/01/26 23:16:48;;;;;;;19.88;12.13;;;;;;;2.10;66.13;100371.91;10419138;28;20049;-64
2023/01/26 23:21:50;;;;;;;18.40;9.88;;;;;;;2.12;66.10;100362.41;10419790;28;20361;-64
2023/01/26 23:26:52;;;;;;;19.70;12.05;;;;;;;2.18;66.11;100361.44;10413248;28;20053;-64
2023/01/26 23:31:53;;;;;;;22.55;12.25;;;;;;;2.30;65.98;100356.03;10420113;28;20186;-64
2023/01/26 23:36:55;;;;;;;21.27;12.10;;;;;;;2.34;65.78;100355.09;10417365;28;20540;-64
2023/01/26 23:41:57;;;;;;;21.23;12.15;;;;;;;2.41;65.76;100361.00;10421680;28;20049;-64
2023/01/26 23:46:58;;;;;;;22.88;12.65;;;;;;;2.40;65.90;100351.56;10418032;28;20045;-64
2023/01/26 23:52:00;;;;;;;26.77;14.23;;;;;;;2.40;65.76;100357.56;10418895;28;20090;-64